Time;durP1;ratioP1;P1;durP2;ratioP2;P2;SDS_P1;SDS_P2;PMS_P1;PMS_P2;Temp;Humidity;BMP_temperature;BMP_pressure;BME280_temperature;BME280_humidity;BME280_pressure;Samples;Min_cycle;Max_cycle;Signal;HPM_P1;HPM_P2
2021/04/30 00:01:22;;;;;;;19.65;16.30;;;;;;;7.19;100.00;101640.13;5014192;28;20112;-63
2021/04/30 00:03:48;;;;;;;21.48;16.95;;;;;;;7.16;100.00;101646.81;5013996;28;20058;-61
2021/04/30 00:06:14;;;;;;;21.92;16.33;;;;;;;7.15;100.00;101638.88;5014063;28;20060;-63
2021/04/30 00:08:40;;;;;;;21.88;16.58;;;;;;;7.13;100.00;101649.09;5013903;28;20057;-64
2021/04/30 00:11:07;;;;;;;18.52;15.60;;;;;;;7.10;100.00;101649.47;5014025;28;20045;-64
2021/04/30 00:13:37;;;;;;;20.17;16.70;;;;;;;7.07;100.00;101644.44;5013953;28;20484;-64
2021/04/30 00:16:05;;;;;;;20.42;15.95;;;;;;;7.03;100.00;101646.72;5014167;28;20040;-65
2021/04/30 00:18:30;;;;;;;19.52;15.73;;;;;;;7.00;100.00;101638.13;5014411;28;20148;-64
2021/04/30 00:20:59;;;;;;;19.27;15.93;;;;;;;6.97;100.00;101641.25;5013980;28;20480;-63
2021/04/30 00:23:26;;;;;;;18.58;15.80;;;;;;;6.93;100.00;101636.19;5013887;28;20493;-65
2021/04/30 00:25:54;;;;;;;21.15;17.50;;;;;;;6.93;100.00;101652.50;5013839;28;20392;-63
2021/04/30 00:28:20;;;;;;;19.80;17.05;;;;;;;6.94;100.00;101645.19;5014029;28;20042;-61
2021/04/30 00:30:45;;;;;;;21.55;17.55;;;;;;;6.94;100.00;101642.47;5013829;28;20045;-66
2021/04/30 00:33:11;;;;;;;21.10;17.25;;;;;;;6.94;100.00;101646.06;5013845;28;20428;-65
2021/04/30 00:35:37;;;;;;;21.92;18.20;;;;;;;6.95;100.00;101646.91;5012619;28;20045;-64
2021/04/30 00:38:03;;;;;;;23.20;17.58;;;;;;;6.93;100.00;101649.78;5013732;28;20499;-64
2021/04/30 00:40:29;;;;;;;22.80;18.17;;;;;;;6.90;100.00;101652.06;5012804;28;20048;-64
2021/04/30 00:42:55;;;;;;;25.27;19.17;;;;;;;6.88;100.00;101638.69;5013431;28;20041;-63
2021/04/30 00:45:23;;;;;;;24.85;17.85;;;;;;;6.86;100.00;101639.91;5013670;28;20034;-63
2021/04/30 00:47:50;;;;;;;24.00;18.90;;;;;;;6.82;100.00;101644.91;5013423;28;20041;-62
2021/04/30 00:50:17;;;;;;;28.67;19.15;;;;;;;6.75;100.00;101635.88;5013189;28;20042;-63
2021/04/30 00:52:42;;;;;;;24.25;19.13;;;;;;;6.72;100.00;101643.56;5013175;28;20228;-61
2021/04/30 00:55:13;;;;;;;24.77;19.50;;;;;;;6.67;100.00;101641.47;5013432;28;20567;-62
2021/04/30 00:57:42;;;;;;;23.85;19.25;;;;;;;6.63;100.00;101648.31;5013271;28;20036;-65
2021/04/30 01:00:10;;;;;;;24.98;19.33;;;;;;;6.59;100.00;101645.13;5013002;28;20034;-64
2021/04/30 01:02:36;;;;;;;25.20;18.90;;;;;;;6.58;100.00;101653.47;5013319;28;20465;-65
2021/04/30 01:05:04;;;;;;;23.48;18.25;;;;;;;6.51;100.00;101639.03;5012652;28;20061;-63
2021/04/30 01:07:30;;;;;;;24.52;18.13;;;;;;;6.46;100.00;101650.47;5012923;28;20038;-64
2021/04/30 01:09:56;;;;;;;23.10;18.63;;;;;;;6.40;100.00;101655.81;5012866;28;20042;-62
2021/04/30 01:12:22;;;;;;;22.60;18.58;;;;;;;6.33;100.00;101655.78;5012846;28;20117;-65
2021/04/30 01:14:49;;;;;;;24.70;18.33;;;;;;;6.25;100.00;101651.34;5013014;28;20038;-67
2021/04/30 01:17:14;;;;;;;23.20;18.48;;;;;;;6.19;100.00;101646.66;5013002;28;20559;-61
2021/04/30 01:19:40;;;;;;;20.58;17.05;;;;;;;6.11;100.00;101644.09;5012599;28;20124;-62
2021/04/30 01:22:06;;;;;;;21.13;17.30;;;;;;;6.07;100.00;101640.06;5012616;28;20042;-62
2021/04/30 01:24:31;;;;;;;21.83;16.40;;;;;;;6.03;100.00;101636.06;5012684;28;20124;-63
2021/04/30 01:26:57;;;;;;;20.05;16.30;;;;;;;5.98;100.00;101641.22;5012715;28;20049;-65
2021/04/30 01:29:26;;;;;;;21.75;14.40;;;;;;;5.93;100.00;101641.81;5026734;28;20490;-63
2021/04/30 01:31:52;;;;;;;23.35;17.33;;;;;;;5.90;100.00;101639.50;5012494;28;20049;-65
2021/04/30 01:34:18;;;;;;;23.90;16.02;;;;;;;5.87;100.00;101641.69;5012377;28;20032;-64
2021/04/30 01:36:43;;;;;;;20.20;16.48;;;;;;;5.84;100.00;101639.38;5012292;28;20384;-62
2021/04/30 01:39:14;;;;;;;20.42;16.60;;;;;;;5.80;100.00;101635.38;5012308;28;20045;-63
2021/04/30 01:41:41;;;;;;;22.55;15.85;;;;;;;5.75;100.00;101627.81;5010944;28;20036;-62
2021/04/30 01:44:12;;;;;;;20.52;16.27;;;;;;;5.74;100.00;101635.13;5012315;28;20038;-61
2021/04/30 01:46:38;;;;;;;25.40;17.27;;;;;;;5.72;100.00;101631.72;5012154;28;20551;-64
2021/04/30 01:49:05;;;;;;;26.08;19.35;;;;;;;5.70;100.00;101633.78;5012090;28;20087;-63
2021/04/30 01:51:33;;;;;;;25.20;18.65;;;;;;;5.69;100.00;101625.84;5011924;28;20056;-65
2021/04/30 01:53:59;;;;;;;25.20;17.65;;;;;;;5.67;100.00;101634.19;5012162;28;20041;-62
2021/04/30 01:56:25;;;;;;;19.05;17.05;;;;;;;5.67;100.00;101631.47;5011988;28;20100;-62
2021/04/30 01:58:50;;;;;;;23.60;18.08;;;;;;;5.67;100.00;101631.47;5011990;28;20034;-62
2021/04/30 02:01:16;;;;;;;22.67;16.58;;;;;;;5.67;100.00;101633.34;5027080;28;20042;-66
2021/04/30 02:03:42;;;;;;;19.75;15.75;;;;;;;5.64;100.00;101629.16;5010320;28;20518;-62
2021/04/30 02:06:08;;;;;;;21.00;15.15;;;;;;;5.63;100.00;101638.31;5011830;28;20121;-62
2021/04/30 02:08:33;;;;;;;19.10;14.27;;;;;;;5.60;100.00;101638.69;5011864;28;20046;-61
2021/04/30 02:10:59;;;;;;;18.60;13.90;;;;;;;5.59;100.00;101636.19;5011692;28;20069;-64
2021/04/30 02:13:24;;;;;;;18.23;14.98;;;;;;;5.57;100.00;101639.06;5011596;28;20128;-64
2021/04/30 02:15:53;;;;;;;19.17;15.18;;;;;;;5.57;100.00;101644.50;5011595;28;20044;-61
2021/04/30 02:18:19;;;;;;;22.73;15.98;;;;;;;5.56;100.00;101641.97;5011729;28;20053;-65
2021/04/30 02:20:46;;;;;;;19.75;15.13;;;;;;;5.56;100.00;101644.69;5011764;28;20096;-62
2021/04/30 02:23:12;;;;;;;18.95;15.60;;;;;;;5.53;100.00;101635.03;5011518;28;20464;-65
2021/04/30 02:25:39;;;;;;;20.50;15.90;;;;;;;5.54;100.00;101639.44;5011587;28;20369;-64
2021/04/30 02:28:06;;;;;;;17.92;14.95;;;;;;;5.53;100.00;101642.34;5011415;28;20045;-64
2021/04/30 02:30:34;;;;;;;19.55;15.45;;;;;;;5.50;100.00;101638.13;5011238;28;20479;-62
2021/04/30 02:33:01;;;;;;;19.05;15.05;;;;;;;5.48;100.00;101640.19;5011279;28;20038;-61
2021/04/30 02:35:36;;;;;;;21.38;15.75;;;;;;;5.44;100.00;101639.75;5011371;28;20117;-63
2021/04/30 02:38:03;;;;;;;20.65;15.57;;;;;;;5.40;100.00;101640.31;5011535;28;20108;-64
2021/04/30 02:40:31;;;;;;;18.92;14.55;;;;;;;5.36;100.00;101636.28;5011221;28;20392;-64
2021/04/30 02:43:06;;;;;;;20.58;15.32;;;;;;;5.33;100.00;101633.94;5011216;28;20061;-65
2021/04/30 02:45:32;;;;;;;17.45;15.23;;;;;;;5.28;100.00;101637.22;5011318;28;20477;-61
2021/04/30 02:47:59;;;;;;;20.38;15.13;;;;;;;5.26;100.00;101638.47;5011177;28;20146;-63
2021/04/30 02:50:27;;;;;;;26.77;15.82;;;;;;;5.25;100.00;101639.47;5011264;28;20449;-62
2021/04/30 02:52:53;;;;;;;22.35;16.50;;;;;;;5.24;100.00;101637.81;5011046;28;20121;-64
2021/04/30 02:55:21;;;;;;;21.60;17.00;;;;;;;5.24;100.00;101638.66;5011530;28;20437;-64
2021/04/30 02:57:55;;;;;;;19.35;15.27;;;;;;;5.24;100.00;101643.22;5011092;28;20084;-63
2021/04/30 03:00:23;;;;;;;21.77;15.65;;;;;;;5.24;100.00;101643.22;5011345;28;20026;-63
2021/04/30 03:02:49;;;;;;;22.02;15.45;;;;;;;5.22;100.00;101640.72;5011115;28;20030;-64
2021/04/30 03:05:15;;;;;;;20.27;15.10;;;;;;;5.20;100.00;101636.47;5010332;28;20068;-62
2021/04/30 03:07:41;;;;;;;18.13;14.13;;;;;;;5.18;100.00;101633.97;5010992;28;20072;-63
2021/04/30 03:10:07;;;;;;;19.02;14.90;;;;;;;5.17;100.00;101636.84;5010851;28;20065;-63
2021/04/30 03:12:33;;;;;;;21.17;14.60;;;;;;;5.14;100.00;101633.50;5010985;28;20534;-65
2021/04/30 03:14:59;;;;;;;16.58;13.27;;;;;;;5.12;100.00;101640.97;5010915;28;20042;-67
2021/04/30 03:17:25;;;;;;;19.98;15.10;;;;;;;5.08;100.00;101636.97;5011118;28;20030;-62
2021/04/30 03:19:51;;;;;;;18.33;14.85;;;;;;;5.07;100.00;101638.00;5011046;28;20034;-63
2021/04/30 03:22:17;;;;;;;19.63;14.82;;;;;;;5.05;100.00;101629.22;5010877;28;20112;-61
2021/04/30 03:24:42;;;;;;;19.88;14.90;;;;;;;5.02;100.00;101632.28;5010699;28;20038;-63
2021/04/30 03:27:09;;;;;;;21.48;15.93;;;;;;;5.00;100.00;101642.47;5010810;28;20041;-65
2021/04/30 03:29:34;;;;;;;17.33;13.43;;;;;;;4.99;100.00;101638.06;5010819;28;20045;-61
2021/04/30 03:32:00;;;;;;;22.63;17.23;;;;;;;4.98;100.00;101628.28;5010886;28;20045;-63
2021/04/30 03:34:26;;;;;;;19.90;16.05;;;;;;;5.01;100.00;101627.88;5010743;28;20423;-61
2021/04/30 03:36:52;;;;;;;21.80;16.88;;;;;;;5.00;100.00;101626.22;5010807;28;20439;-62
2021/04/30 03:39:17;;;;;;;23.13;16.88;;;;;;;4.98;100.00;101632.84;5010758;28;20042;-65
2021/04/30 03:41:43;;;;;;;18.67;14.30;;;;;;;4.96;100.00;101630.31;5010565;28;20065;-63
2021/04/30 03:44:10;;;;;;;14.07;10.68;;;;;;;4.92;100.00;101630.88;5009282;28;20072;-65
2021/04/30 03:46:36;;;;;;;13.73;9.10;;;;;;;4.85;100.00;101628.06;5010606;28;20034;-63
2021/04/30 03:49:02;;;;;;;12.07;8.73;;;;;;;4.81;100.00;101629.47;5010636;28;20042;-64
2021/04/30 03:51:28;;;;;;;13.88;8.50;;;;;;;4.76;100.00;101629.19;5010464;28;20056;-63
2021/04/30 03:53:53;;;;;;;9.35;8.20;;;;;;;4.74;100.00;101628.53;5025679;28;20545;-63
2021/04/30 03:56:19;;;;;;;13.43;8.82;;;;;;;4.70;100.00;101621.81;5010774;28;20048;-61
2021/04/30 03:58:45;;;;;;;10.05;8.52;;;;;;;4.68;100.00;101621.13;5010579;28;20108;-64
2021/04/30 04:01:10;;;;;;;15.30;8.55;;;;;;;4.68;100.00;101619.28;5010428;28;20439;-62
2021/04/30 04:03:36;;;;;;;16.23;9.60;;;;;;;4.68;100.00;101626.56;5010202;28;20058;-63
2021/04/30 04:06:02;;;;;;;12.82;9.25;;;;;;;4.69;100.00;101625.56;5010379;28;20050;-65
2021/04/30 04:08:31;;;;;;;12.23;9.82;;;;;;;4.70;100.00;101624.53;5010360;28;20038;-62
2021/04/30 04:10:57;;;;;;;15.38;11.63;;;;;;;4.72;100.00;101622.47;5010396;28;20045;-67
2021/04/30 04:13:25;;;;;;;14.45;10.98;;;;;;;4.73;100.00;101624.16;5010415;28;20528;-61
2021/04/30 04:15:52;;;;;;;15.02;10.23;;;;;;;4.73;100.00;101618.75;5010840;28;20038;-62
2021/04/30 04:18:19;;;;;;;12.20;9.73;;;;;;;4.75;100.00;101632.94;5013822;28;20056;-64
2021/04/30 04:20:45;;;;;;;12.60;10.73;;;;;;;4.71;100.00;101629.75;5013715;28;20046;-63
2021/04/30 04:23:11;;;;;;;13.27;10.55;;;;;;;4.70;100.00;101638.06;5013698;28;20030;-63
2021/04/30 04:25:40;;;;;;;16.15;11.95;;;;;;;4.70;100.00;101632.66;5013776;28;20468;-63
2021/04/30 04:28:07;;;;;;;18.90;11.82;;;;;;;4.73;100.00;101634.97;5013724;28;20124;-63
2021/04/30 04:30:33;;;;;;;12.55;10.13;;;;;;;4.72;100.00;101638.72;5013597;28;20531;-62
2021/04/30 04:32:59;;;;;;;13.43;10.68;;;;;;;4.72;100.00;101639.56;5013936;28;20132;-62
2021/04/30 04:35:25;;;;;;;13.80;10.82;;;;;;;4.72;100.00;101644.13;5013489;28;20034;-62
2021/04/30 04:37:50;;;;;;;14.05;10.55;;;;;;;4.69;100.00;101647.19;5013464;28;20484;-63
2021/04/30 04:40:16;;;;;;;13.52;9.95;;;;;;;4.68;100.00;101642.78;5013455;28;20077;-64
2021/04/30 04:42:43;;;;;;;13.35;10.45;;;;;;;4.65;100.00;101645.88;5013361;28;20033;-64
2021/04/30 04:45:10;;;;;;;17.00;10.52;;;;;;;4.63;100.00;101639.78;5013394;28;20404;-63
2021/04/30 04:47:37;;;;;;;12.95;10.55;;;;;;;4.62;100.00;101643.53;5013348;28;20061;-61
2021/04/30 04:50:04;;;;;;;12.02;10.07;;;;;;;4.61;100.00;101641.84;5013730;28;20037;-62
2021/04/30 04:52:30;;;;;;;11.93;9.45;;;;;;;4.61;100.00;101641.84;5013103;28;20038;-63
2021/04/30 04:54:55;;;;;;;14.75;11.68;;;;;;;4.61;100.00;101639.16;5013007;28;20049;-62
2021/04/30 04:57:21;;;;;;;15.15;11.25;;;;;;;4.61;100.00;101637.28;5013582;28;20088;-65
2021/04/30 04:59:46;;;;;;;15.20;10.60;;;;;;;4.62;100.00;101644.38;5013137;28;20048;-64
2021/04/30 05:02:12;;;;;;;15.02;10.77;;;;;;;4.60;100.00;101646.41;5013027;28;20042;-64
2021/04/30 05:04:38;;;;;;;15.50;10.68;;;;;;;4.61;100.00;101647.25;5012768;28;20384;-63
2021/04/30 05:07:04;;;;;;;13.15;9.95;;;;;;;4.58;100.00;101645.78;5012931;28;20044;-63
2021/04/30 05:09:29;;;;;;;15.98;10.45;;;;;;;4.57;100.00;101645.94;5012781;28;20038;-64
2021/04/30 05:11:55;;;;;;;13.25;10.05;;;;;;;4.54;100.00;101642.59;5012773;28;20038;-62
2021/04/30 05:14:21;;;;;;;16.33;11.20;;;;;;;4.54;100.00;101642.59;5012814;28;20563;-63
2021/04/30 05:16:48;;;;;;;15.35;9.93;;;;;;;4.54;100.00;101644.47;5012810;28;20053;-63
2021/04/30 05:19:14;;;;;;;14.95;10.65;;;;;;;4.55;100.00;101654.25;5012764;28;20064;-63
2021/04/30 05:21:41;;;;;;;16.73;11.32;;;;;;;4.56;100.00;101660.50;5012641;28;20077;-63
2021/04/30 05:24:10;;;;;;;15.30;13.30;;;;;;;4.57;100.00;101657.63;5012604;28;20137;-64
2021/04/30 05:26:36;;;;;;;19.80;13.05;;;;;;;4.61;100.00;101658.09;5012048;28;20034;-64
2021/04/30 05:29:02;;;;;;;18.27;14.55;;;;;;;4.64;100.00;101658.56;5012486;28;20451;-65
2021/04/30 05:31:28;;;;;;;21.92;15.15;;;;;;;4.68;100.00;101659.03;5012381;28;20463;-66
2021/04/30 05:33:53;;;;;;;19.23;15.35;;;;;;;4.69;100.00;101667.00;5012815;28;20042;-63
2021/04/30 05:36:19;;;;;;;26.00;15.45;;;;;;;4.71;100.00;101670.34;5012433;28;20038;-63
2021/04/30 05:38:44;;;;;;;18.77;14.52;;;;;;;4.72;100.00;101671.19;5012483;28;20590;-64
2021/04/30 05:41:10;;;;;;;23.23;15.00;;;;;;;4.74;100.00;101677.25;5012340;28;20037;-62
2021/04/30 05:43:35;;;;;;;19.23;13.82;;;;;;;4.73;100.00;101672.88;5012222;28;20081;-62
2021/04/30 05:46:01;;;;;;;17.13;13.98;;;;;;;4.74;100.00;101674.53;5012172;28;20029;-64
2021/04/30 05:48:27;;;;;;;22.85;15.57;;;;;;;4.73;100.00;101675.56;5012004;28;20400;-64
2021/04/30 05:50:53;;;;;;;19.55;14.15;;;;;;;4.73;100.00;101678.28;5012069;28;20042;-63
2021/04/30 05:53:21;;;;;;;19.35;14.30;;;;;;;4.74;100.00;101671.84;5012052;28;20399;-65
2021/04/30 05:55:47;;;;;;;17.23;14.13;;;;;;;4.75;100.00;101679.78;5012351;28;20037;-62
2021/04/30 05:58:12;;;;;;;19.88;14.27;;;;;;;4.78;100.00;101681.25;5012057;28;20042;-65
2021/04/30 06:00:38;;;;;;;19.15;14.38;;;;;;;4.80;100.00;101679.22;5011904;28;20472;-62
2021/04/30 06:03:04;;;;;;;16.92;13.43;;;;;;;4.82;100.00;101682.56;5011828;28;20135;-65
2021/04/30 06:05:30;;;;;;;22.10;13.45;;;;;;;4.85;100.00;101676.78;5011716;28;20631;-64
2021/04/30 06:07:55;;;;;;;18.38;12.90;;;;;;;4.87;100.00;101682.03;5011814;28;20373;-65
2021/04/30 06:10:21;;;;;;;14.90;12.52;;;;;;;4.89;100.00;101683.53;5011656;28;20507;-63
2021/04/30 06:12:47;;;;;;;18.30;12.98;;;;;;;4.92;100.00;101687.72;5011600;28;20041;-66
2021/04/30 06:15:13;;;;;;;16.15;12.27;;;;;;;4.96;100.00;101684.47;5011710;28;20488;-64
2021/04/30 06:17:38;;;;;;;15.27;11.98;;;;;;;5.00;100.00;101674.94;5011601;28;20563;-64
2021/04/30 06:20:05;;;;;;;18.08;12.07;;;;;;;5.05;100.00;101680.66;5011616;28;20037;-61
2021/04/30 06:22:31;;;;;;;13.52;10.98;;;;;;;5.12;100.00;101683.47;5011480;28;20408;-63
2021/04/30 06:24:56;;;;;;;13.20;10.77;;;;;;;5.19;100.00;101688.97;5011512;28;20041;-62
2021/04/30 06:27:24;;;;;;;13.05;9.00;;;;;;;5.24;100.00;101692.81;5011464;28;20125;-66
2021/04/30 06:29:49;;;;;;;11.95;8.93;;;;;;;5.30;100.00;101693.94;5011579;28;20448;-61
2021/04/30 06:32:15;;;;;;;16.40;10.95;;;;;;;5.33;100.00;101690.84;5011409;28;20034;-64
2021/04/30 06:34:41;;;;;;;14.27;10.48;;;;;;;5.38;100.00;101688.41;5011378;28;20526;-63
2021/04/30 06:37:06;;;;;;;14.40;9.90;;;;;;;5.42;100.00;101685.16;5011518;28;20461;-62
2021/04/30 06:39:32;;;;;;;13.60;10.10;;;;;;;5.47;100.00;101692.72;5010509;28;20034;-64
2021/04/30 06:42:01;;;;;;;12.75;10.32;;;;;;;5.53;100.00;101686.53;5011255;28;20124;-61
2021/04/30 06:44:31;;;;;;;13.85;9.85;;;;;;;5.55;100.00;101684.47;5011202;28;20464;-63
2021/04/30 06:46:57;;;;;;;14.43;10.55;;;;;;;5.62;100.00;101687.28;5011222;28;20045;-64
2021/04/30 06:49:23;;;;;;;11.80;10.27;;;;;;;5.67;100.00;101682.97;5011198;28;20121;-62
2021/04/30 06:51:49;;;;;;;13.55;10.38;;;;;;;5.73;100.00;101684.94;5011099;28;20120;-64
2021/04/30 06:54:19;;;;;;;14.63;10.60;;;;;;;5.82;100.00;101690.22;5011163;28;20045;-63
2021/04/30 06:56:46;;;;;;;12.98;10.88;;;;;;;5.89;100.00;101689.28;5011084;28;20468;-61
2021/04/30 06:59:11;;;;;;;13.55;10.70;;;;;;;5.97;100.00;101688.34;5011227;28;20464;-61
2021/04/30 07:01:39;;;;;;;14.95;10.82;;;;;;;6.06;100.00;101681.78;5010874;28;20042;-62
2021/04/30 07:04:07;;;;;;;12.65;10.52;;;;;;;6.14;100.00;101684.38;5010933;28;20136;-62
2021/04/30 07:06:33;;;;;;;14.48;11.82;;;;;;;6.22;100.00;101680.69;5011033;28;20053;-62
2021/04/30 07:08:59;;;;;;;15.45;11.57;;;;;;;6.33;100.00;101683.75;5011043;28;20077;-64
2021/04/30 07:11:25;;;;;;;14.30;12.15;;;;;;;6.43;100.00;101688.03;5010965;28;20073;-62
2021/04/30 07:13:50;;;;;;;16.02;13.02;;;;;;;6.54;100.00;101687.47;5010822;28;20060;-64
2021/04/30 07:16:17;;;;;;;15.85;13.98;;;;;;;6.61;100.00;101685.69;5010893;28;20045;-63
2021/04/30 07:18:42;;;;;;;13.77;12.15;;;;;;;6.67;100.00;101689.47;5011032;28;20042;-60
2021/04/30 07:21:09;;;;;;;16.30;13.30;;;;;;;6.75;100.00;101692.88;5010897;28;20053;-66
2021/04/30 07:23:36;;;;;;;18.15;13.75;;;;;;;6.82;100.00;101682.09;5010901;28;20084;-62
2021/04/30 07:26:03;;;;;;;14.55;12.95;;;;;;;6.90;100.00;101685.47;5010881;28;20046;-61
2021/04/30 07:28:28;;;;;;;16.40;13.93;;;;;;;7.01;100.00;101688.72;5010798;28;20037;-61
2021/04/30 07:30:54;;;;;;;16.45;13.40;;;;;;;7.08;100.00;101692.28;5010752;28;20034;-62
2021/04/30 07:33:46;;;;;;;17.02;13.35;;;;;;;7.19;100.00;101694.47;5009363;28;20583;-61
2021/04/30 07:36:13;;;;;;;16.55;14.18;;;;;;;7.31;100.00;101695.59;5010769;28;20061;-68
2021/04/30 07:38:39;;;;;;;15.48;13.32;;;;;;;7.42;100.00;101694.19;5010782;28;20072;-62
2021/04/30 07:41:05;;;;;;;15.68;13.90;;;;;;;7.52;100.00;101700.09;5010632;28;20046;-61
2021/04/30 07:43:31;;;;;;;18.35;13.63;;;;;;;7.65;100.00;101691.19;5010668;28;20049;-62
2021/04/30 07:45:59;;;;;;;15.18;13.57;;;;;;;7.76;100.00;101696.03;5010816;28;20048;-68
2021/04/30 07:48:25;;;;;;;16.42;12.82;;;;;;;7.88;100.00;101693.56;5010713;28;20042;-68
2021/04/30 07:50:51;;;;;;;23.35;15.73;;;;;;;7.99;100.00;101691.13;5012609;28;20137;-62
2021/04/30 07:53:17;;;;;;;17.70;13.23;;;;;;;8.12;100.00;101698.47;5014263;28;20054;-65
2021/04/30 07:55:43;;;;;;;18.60;13.13;;;;;;;8.19;100.00;101688.44;5013709;28;20099;-64
2021/04/30 07:58:08;;;;;;;14.48;12.45;;;;;;;8.28;100.00;101694.53;5013841;28;20044;-63
2021/04/30 08:00:34;;;;;;;13.38;12.02;;;;;;;8.39;100.00;101692.06;5013817;28;20077;-63
2021/04/30 08:03:00;;;;;;;15.43;12.05;;;;;;;8.51;100.00;101686.03;5013735;28;20034;-63
2021/04/30 08:05:26;;;;;;;12.07;10.95;;;;;;;8.60;100.00;101688.31;5013721;28;20479;-65
2021/04/30 08:07:53;;;;;;;12.88;10.68;;;;;;;8.69;100.00;101687.09;5013816;28;20045;-64
2021/04/30 08:10:19;;;;;;;14.43;11.35;;;;;;;8.81;100.00;101689.16;5013774;28;20111;-64
2021/04/30 08:12:45;;;;;;;15.27;11.02;;;;;;;8.92;100.00;101686.66;5012564;28;20132;-66
2021/04/30 08:15:12;;;;;;;12.88;10.80;;;;;;;9.03;100.00;101687.91;5012415;28;21138;-61
2021/04/30 08:17:38;;;;;;;14.65;11.07;;;;;;;9.16;100.00;101687.03;5012938;28;20117;-64
2021/04/30 08:20:05;;;;;;;13.00;10.30;;;;;;;9.24;100.00;101689.56;5012939;28;20076;-64
2021/04/30 08:22:32;;;;;;;14.05;10.95;;;;;;;9.35;100.00;101686.16;5013596;28;20045;-65
2021/04/30 08:24:58;;;;;;;12.20;10.32;;;;;;;9.43;100.00;101687.81;5012774;28;20128;-63
2021/04/30 08:27:24;;;;;;;12.07;10.82;;;;;;;9.53;100.00;101688.19;5013433;28;20454;-65
2021/04/30 08:29:51;;;;;;;14.25;11.63;;;;;;;9.63;100.00;101688.59;5012764;28;20387;-64
2021/04/30 08:32:17;;;;;;;13.20;9.68;;;;;;;9.72;100.00;101681.88;5012041;28;20032;-62
2021/04/30 08:34:43;;;;;;;18.85;10.77;;;;;;;9.81;100.00;101686.00;5013262;28;20037;-62
2021/04/30 08:37:09;;;;;;;12.45;10.75;;;;;;;9.95;100.00;101684.91;5012944;28;20041;-63
2021/04/30 08:39:34;;;;;;;14.45;11.00;;;;;;;10.08;100.00;101686.72;5012331;28;20084;-65
2021/04/30 08:42:00;;;;;;;11.23;10.02;;;;;;;10.18;100.00;101675.31;5012818;28;20072;-62
2021/04/30 08:44:26;;;;;;;12.45;9.63;;;;;;;10.30;100.00;101681.78;5012310;28;20045;-66
2021/04/30 08:46:52;;;;;;;12.52;10.45;;;;;;;10.40;100.00;101675.84;5012480;28;20025;-63
2021/04/30 08:49:18;;;;;;;14.35;10.02;;;;;;;10.48;100.00;101676.41;5011093;28;20041;-65
2021/04/30 08:51:43;;;;;;;12.68;9.38;;;;;;;10.57;100.00;101677.81;5013088;28;20041;-60
2021/04/30 08:54:10;;;;;;;9.60;8.65;;;;;;;10.69;100.00;101679.84;5012354;28;20140;-63
2021/04/30 08:56:44;;;;;;;11.27;8.48;;;;;;;10.80;100.00;101679.13;5012707;28;20072;-65
2021/04/30 08:59:11;;;;;;;11.60;8.38;;;;;;;10.96;100.00;101677.72;5013079;28;20044;-60
2021/04/30 09:01:37;;;;;;;9.38;8.48;;;;;;;11.06;100.00;101684.34;5012076;28;20400;-63
2021/04/30 09:04:05;;;;;;;10.00;8.18;;;;;;;11.15;100.00;101683.00;5012792;28;20054;-66
2021/04/30 09:06:34;;;;;;;9.60;8.00;;;;;;;11.27;100.00;101680.34;5012303;28;20077;-63
2021/04/30 09:09:08;;;;;;;9.13;7.85;;;;;;;11.39;100.00;101685.91;5012641;28;20049;-66
2021/04/30 09:11:54;;;;;;;6.90;5.78;;;;;;;11.46;100.00;101683.94;5012860;28;20496;-65
2021/04/30 09:14:31;;;;;;;7.38;5.50;;;;;;;11.55;100.00;101687.19;5012574;28;20026;-63
2021/04/30 09:17:04;;;;;;;9.60;6.60;;;;;;;11.68;100.00;101681.56;5011911;28;20065;-63
2021/04/30 09:19:31;;;;;;;7.68;5.85;;;;;;;11.82;100.00;101683.13;5024309;28;20026;-61
2021/04/30 09:22:07;;;;;;;6.28;4.25;;;;;;;11.96;100.00;101678.28;4992970;28;20030;-63
2021/04/30 09:24:34;;;;;;;4.97;3.95;;;;;;;12.07;100.00;101683.00;5003205;28;20041;-63
2021/04/30 09:27:00;;;;;;;8.20;4.90;;;;;;;12.19;100.00;101680.31;5011955;28;20049;-64
2021/04/30 09:29:29;;;;;;;5.72;4.20;;;;;;;12.28;100.00;101671.53;5012006;28;20049;-66
2021/04/30 09:31:55;;;;;;;7.07;4.82;;;;;;;12.35;100.00;101677.75;5012127;28;20096;-62
2021/04/30 09:34:28;;;;;;;4.60;4.07;;;;;;;12.44;100.00;101669.19;5012516;28;20435;-62
2021/04/30 09:37:01;;;;;;;4.40;3.92;;;;;;;12.53;100.00;101673.28;5012227;28;20045;-62
2021/04/30 09:39:28;;;;;;;5.10;3.83;;;;;;;12.61;98.79;101671.00;5012337;28;20030;-63
2021/04/30 09:42:13;;;;;;;4.38;4.00;;;;;;;12.71;96.77;101670.44;5012112;28;20460;-62
2021/04/30 09:44:42;;;;;;;5.15;4.45;;;;;;;12.79;95.74;101672.81;5012268;28;20076;-66
2021/04/30 09:47:14;;;;;;;7.90;5.07;;;;;;;12.88;92.99;101676.06;5012022;28;20085;-67
2021/04/30 09:49:40;;;;;;;6.15;4.43;;;;;;;12.95;92.22;101671.28;4992360;28;20026;-64
2021/04/30 09:52:08;;;;;;;5.32;4.82;;;;;;;13.04;91.62;101674.53;5004129;28;20084;-64
2021/04/30 09:54:36;;;;;;;7.13;4.82;;;;;;;13.13;87.27;101675.81;5011464;28;20052;-64
2021/04/30 09:57:23;;;;;;;4.35;3.95;;;;;;;13.21;84.52;101670.88;5011906;28;20076;-61
2021/04/30 09:59:57;;;;;;;9.80;3.72;;;;;;;13.12;72.99;101671.41;5011918;28;20036;-67
2021/04/30 10:02:28;;;;;;;6.07;4.07;;;;;;;13.24;80.13;101669.53;5011904;28;20037;-64
2021/04/30 10:04:56;;;;;;;6.25;4.97;;;;;;;13.28;78.81;101677.03;5011517;28;20125;-64
2021/04/30 10:07:30;;;;;;;9.93;7.25;;;;;;;13.37;90.42;101680.28;5011311;28;20068;-64
2021/04/30 10:10:16;;;;;;;8.00;5.70;;;;;;;13.49;91.50;101678.34;5011578;28;20353;-62
2021/04/30 10:12:45;;;;;;;5.28;4.88;;;;;;;13.59;84.81;101680.47;5011163;28;20596;-62
2021/04/30 10:15:14;;;;;;;6.82;5.30;;;;;;;13.71;87.10;101674.94;5011280;28;20116;-61
2021/04/30 10:17:39;;;;;;;6.57;6.07;;;;;;;13.84;94.28;101680.16;5011199;28;20041;-63
2021/04/30 10:20:07;;;;;;;7.30;6.70;;;;;;;13.96;93.90;101683.72;5011589;28;20033;-61
2021/04/30 10:22:36;;;;;;;7.53;6.85;;;;;;;14.02;91.39;101677.22;5011297;28;20045;-62
2021/04/30 10:25:06;;;;;;;7.75;6.57;;;;;;;14.06;93.21;101672.94;5011490;28;20488;-61
2021/04/30 10:27:36;;;;;;;7.88;6.43;;;;;;;14.14;91.78;101680.78;5010933;28;20392;-64
2021/04/30 10:30:16;;;;;;;8.20;7.05;;;;;;;14.16;91.60;101666.78;5010818;28;20428;-63
2021/04/30 10:32:53;;;;;;;8.40;7.70;;;;;;;14.09;91.84;101672.44;5011011;28;20100;-63
2021/04/30 10:35:37;;;;;;;8.23;7.40;;;;;;;14.10;96.16;101671.34;5011473;28;20053;-65
2021/04/30 10:38:11;;;;;;;8.77;8.02;;;;;;;14.18;97.50;101670.94;5011146;28;20786;-65
2021/04/30 10:40:56;;;;;;;9.25;8.48;;;;;;;14.26;96.88;101671.66;5010978;28;20041;-64
2021/04/30 10:43:22;;;;;;;11.32;8.98;;;;;;;14.31;98.12;101669.00;5009641;28;20072;-63
2021/04/30 10:46:05;;;;;;;8.82;7.97;;;;;;;14.32;96.40;101670.66;5010033;28;20124;-64
2021/04/30 10:48:32;;;;;;;8.90;8.05;;;;;;;14.10;95.91;101659.53;5010859;28;20080;-63
2021/04/30 10:51:12;;;;;;;8.85;7.85;;;;;;;13.96;95.02;101667.22;5010600;28;20381;-62
2021/04/30 10:53:38;;;;;;;9.90;8.95;;;;;;;13.93;100.00;101656.75;5010755;28;20042;-64
2021/04/30 10:56:34;;;;;;;10.00;8.27;;;;;;;14.03;100.00;101653.34;5025217;28;20058;-63
2021/04/30 10:59:00;;;;;;;9.18;8.32;;;;;;;14.19;100.00;101660.78;5010138;28;20049;-62
2021/04/30 11:01:32;;;;;;;9.50;8.60;;;;;;;14.29;100.00;101669.25;5009894;28;20440;-61
2021/04/30 11:04:07;;;;;;;8.73;7.85;;;;;;;14.25;98.21;101661.75;5009922;28;20084;-65
2021/04/30 11:06:38;;;;;;;9.10;8.23;;;;;;;14.36;97.75;101660.84;5010612;28;20056;-65
2021/04/30 11:09:06;;;;;;;9.40;7.30;;;;;;;14.46;96.12;101655.56;5009485;28;20092;-62
2021/04/30 11:11:36;;;;;;;13.07;8.63;;;;;;;14.57;95.45;101651.06;5010618;28;20124;-62
2021/04/30 11:14:25;;;;;;;8.48;7.53;;;;;;;14.70;91.10;101659.81;5010587;28;20140;-63